Holliston, MA (01746)

10:40 AM EST on November 24, 2014 (GMT -0500)
KMAHOLLI3 | Change Station
CLOSE
Current Station
Personal Weather Station
Location: Holliston, MA
Elevation: 190 ft
Nearby Weather Stations

Elev 190 ft 42.18 °N, 71.41 °W | Updated 12 minutes ago

Rain
Rain
62.1 °F
Feels Like 62.1 °F
N
7.3
Wind Variable Wind from SSE

Today
High -- | Low -- °F
--% Chance of Precip.
Yesterday
High -- | Low -- °F
Precip. -- in
6:46 AM 4:17 PM
Waxing Crescent, 6% visible
Pressure 29.73 in
Visibility 2.5 miles
Clouds Mostly Cloudy 1000 ft
Overcast 1600 ft
Dew Point 62 °F
Humidity 99%
Rainfall 0.44 in
Snow Depth Not available.
UV 1 out of 12
Pollen .10 out of 12
Air Quality Not available.
Flu Activity Not available.
SPECI KOWD 241505Z 17013G22KT 2 1/2SM -RA BR BKN010 OVC016 17/16 A2973 RMK AO2 P0002 T01670156

More Conditions Fewer Conditions

Pressure 29.73 in
Visibility 2.5 miles
Clouds Mostly Cloudy 1000 ft
Overcast 1600 ft
Dew Point 62 °F
Humidity 99%
Rainfall 0.44 in
Snow Depth Not available.
UV 1 out of 12
Pollen .10 out of 12
Air Quality Not available.
Flu Activity Not available.
SPECI KOWD 241505Z 17013G22KT 2 1/2SM -RA BR BKN010 OVC016 17/16 A2973 RMK AO2 P0002 T01670156

More Conditions Fewer Conditions

10-Day Weather Forecast

Almanac

Astronomy

Nov. 24, 2014 Rise Set
Actual Time
Civil Twilight
Nautical Twilight
Astronomical Twilight
Moon
Length of Visible Light
Length of Day
Tomorrow will be .
, % of the Moon is Illuminated

Today's Extremes

State Highs State Lows

Community

WunderPhotos

Upload Photos

1,773,361 photos uploaded!

WunderBlogs® & News

Nearby

Air Quality

  Air Quality AQ Index Pollutant
Not available.

Snow Depth

Station Depth Elevation

Earthquake Activity

City Distance Mag. Time & Date
Minimum magnitude displayed is 2.5.

Coastal Water Temperatures

Place Temperature

Nearby Weather Stations